sensor_id;sensor_type;location;lat;lon;timestamp;pressure;altitude;pressure_sealevel;temperature;humidity
43681;BME280;29281;50.356;30.894;2022-08-19T00:00:04;99736.24;;;21.89;79.99
43681;BME280;29281;50.356;30.894;2022-08-19T00:01:09;99733.66;;;21.81;80.30
43681;BME280;29281;50.356;30.894;2022-08-19T00:02:13;99737.56;;;21.78;80.36
43681;BME280;29281;50.356;30.894;2022-08-19T00:03:17;99738.88;;;21.82;80.24
43681;BME280;29281;50.356;30.894;2022-08-19T00:04:26;99739.24;;;21.79;80.55
43681;BME280;29281;50.356;30.894;2022-08-19T00:05:30;99738.88;;;21.82;80.39
43681;BME280;29281;50.356;30.894;2022-08-19T00:06:37;99735.22;;;21.90;79.93
43681;BME280;29281;50.356;30.894;2022-08-19T00:07:42;99737.08;;;21.89;80.03
43681;BME280;29281;50.356;30.894;2022-08-19T00:08:48;99734.37;;;21.89;79.99
43681;BME280;29281;50.356;30.894;2022-08-19T00:09:58;99742.21;;;21.69;81.28
43681;BME280;29281;50.356;30.894;2022-08-19T00:11:02;99745.20;;;21.74;81.14
43681;BME280;29281;50.356;30.894;2022-08-19T00:12:11;99745.67;;;21.63;81.26
43681;BME280;29281;50.356;30.894;2022-08-19T00:13:13;99750.79;;;21.73;81.14
43681;BME280;29281;50.356;30.894;2022-08-19T00:14:20;99745.67;;;21.78;80.86
43681;BME280;29281;50.356;30.894;2022-08-19T00:15:26;99754.15;;;21.75;80.97
43681;BME280;29281;50.356;30.894;2022-08-19T00:16:32;99752.47;;;21.74;81.09
43681;BME280;29281;50.356;30.894;2022-08-19T00:17:38;99749.87;;;21.81;80.68
43681;BME280;29281;50.356;30.894;2022-08-19T00:18:43;99747.91;;;21.74;80.87
43681;BME280;29281;50.356;30.894;2022-08-19T00:19:47;99759.00;;;21.80;80.84
43681;BME280;29281;50.356;30.894;2022-08-19T00:20:52;99754.15;;;21.75;81.10
43681;BME280;29281;50.356;30.894;2022-08-19T00:21:56;99756.20;;;21.73;81.01
43681;BME280;29281;50.356;30.894;2022-08-19T00:23:03;99753.12;;;21.61;81.76
43681;BME280;29281;50.356;30.894;2022-08-19T00:24:14;99749.03;;;21.65;81.66
43681;BME280;29281;50.356;30.894;2022-08-19T00:25:18;99750.42;;;21.76;81.17
43681;BME280;29281;50.356;30.894;2022-08-19T00:26:33;99752.76;;;21.79;81.61
43681;BME280;29281;50.356;30.894;2022-08-19T00:27:37;99748.74;;;21.75;81.25
43681;BME280;29281;50.356;30.894;2022-08-19T00:28:40;99739.72;;;21.68;81.58
43681;BME280;29281;50.356;30.894;2022-08-19T00:29:43;99739.25;;;21.64;81.86
43681;BME280;29281;50.356;30.894;2022-08-19T00:30:47;99745.31;;;21.66;81.65
43681;BME280;29281;50.356;30.894;2022-08-19T00:31:54;99753.59;;;21.65;81.80
43681;BME280;29281;50.356;30.894;2022-08-19T00:32:57;99747.36;;;21.64;81.98
43681;BME280;29281;50.356;30.894;2022-08-19T00:34:00;99749.77;;;21.59;82.14
43681;BME280;29281;50.356;30.894;2022-08-19T00:35:05;99747.25;;;21.58;82.29
43681;BME280;29281;50.356;30.894;2022-08-19T00:36:12;99742.42;;;21.53;82.52
43681;BME280;29281;50.356;30.894;2022-08-19T00:37:16;99741.00;;;21.57;82.43
43681;BME280;29281;50.356;30.894;2022-08-19T00:38:20;99739.43;;;21.63;82.00
43681;BME280;29281;50.356;30.894;2022-08-19T00:39:26;99733.27;;;21.54;82.58
43681;BME280;29281;50.356;30.894;2022-08-19T00:40:32;99733.25;;;21.39;83.16
43681;BME280;29281;50.356;30.894;2022-08-19T00:42:52;99731.14;;;21.50;83.46
43681;BME280;29281;50.356;30.894;2022-08-19T00:45:19;99733.83;;;21.35;83.68
43681;BME280;29281;50.356;30.894;2022-08-19T00:46:16;99732.52;;;21.31;83.89
43681;BME280;29281;50.356;30.894;2022-08-19T00:47:23;99732.22;;;21.26;84.19
43681;BME280;29281;50.356;30.894;2022-08-19T00:48:28;99731.39;;;21.40;83.45
43681;BME280;29281;50.356;30.894;2022-08-19T00:49:34;99737.01;;;21.38;83.62
43681;BME280;29281;50.356;30.894;2022-08-19T00:50:41;99729.72;;;21.39;83.61
43681;BME280;29281;50.356;30.894;2022-08-19T00:51:51;99732.61;;;21.23;84.56
43681;BME280;29281;50.356;30.894;2022-08-19T00:53:15;99740.72;;;21.23;84.51
43681;BME280;29281;50.356;30.894;2022-08-19T00:54:23;99738.09;;;21.29;84.14
43681;BME280;29281;50.356;30.894;2022-08-19T00:55:31;99737.91;;;21.31;84.20
43681;BME280;29281;50.356;30.894;2022-08-19T00:56:37;99742.41;;;21.38;83.71
43681;BME280;29281;50.356;30.894;2022-08-19T00:57:53;99742.12;;;21.33;84.00
43681;BME280;29281;50.356;30.894;2022-08-19T00:58:58;99748.42;;;21.26;84.42
43681;BME280;29281;50.356;30.894;2022-08-19T01:00:09;99743.41;;;21.23;84.33
43681;BME280;29281;50.356;30.894;2022-08-19T01:01:15;99747.58;;;21.25;84.42
43681;BME280;29281;50.356;30.894;2022-08-19T01:02:20;99732.61;;;21.23;84.67
43681;BME280;29281;50.356;30.894;2022-08-19T01:03:24;99733.35;;;21.31;84.25
43681;BME280;29281;50.356;30.894;2022-08-19T01:04:28;99741.27;;;21.33;84.01
43681;BME280;29281;50.356;30.894;2022-08-19T01:05:42;99739.30;;;21.27;84.26
43681;BME280;29281;50.356;30.894;2022-08-19T01:06:51;99735.94;;;21.25;84.43
43681;BME280;29281;50.356;30.894;2022-08-19T01:07:56;99740.14;;;21.27;84.41
43681;BME280;29281;50.356;30.894;2022-08-19T01:09:01;99742.18;;;21.25;84.49
43681;BME280;29281;50.356;30.894;2022-08-19T01:10:15;99743.08;;;21.18;84.87
43681;BME280;29281;50.356;30.894;2022-08-19T01:11:17;99741.10;;;21.12;85.16
43681;BME280;29281;50.356;30.894;2022-08-19T01:12:26;99738.67;;;21.02;85.73
43681;BME280;29281;50.356;30.894;2022-08-19T01:13:33;99739.15;;;21.05;85.71
43681;BME280;29281;50.356;30.894;2022-08-19T01:14:41;99737.65;;;21.03;85.62
43681;BME280;29281;50.356;30.894;2022-08-19T01:15:55;99742.56;;;20.99;86.01
43681;BME280;29281;50.356;30.894;2022-08-19T01:16:56;99745.70;;;20.88;86.76
43681;BME280;29281;50.356;30.894;2022-08-19T01:18:09;99740.30;;;20.88;86.67
43681;BME280;29281;50.356;30.894;2022-08-19T01:19:24;99737.61;;;20.88;86.71
43681;BME280;29281;50.356;30.894;2022-08-19T01:20:29;99736.86;;;20.94;86.31
43681;BME280;29281;50.356;30.894;2022-08-19T01:21:45;99733.75;;;21.05;85.75
43681;BME280;29281;50.356;30.894;2022-08-19T01:24:04;99728.44;;;21.12;86.04
43681;BME280;29281;50.356;30.894;2022-08-19T01:25:08;99731.59;;;21.01;86.05
43681;BME280;29281;50.356;30.894;2022-08-19T01:26:17;99735.13;;;21.01;85.96
43681;BME280;29281;50.356;30.894;2022-08-19T01:27:21;99733.57;;;21.07;85.82
43681;BME280;29281;50.356;30.894;2022-08-19T01:28:27;99738.22;;;21.13;85.20
43681;BME280;29281;50.356;30.894;2022-08-19T01:29:33;99734.29;;;21.01;85.86
43681;BME280;29281;50.356;30.894;2022-08-19T01:30:39;99736.06;;;21.08;85.60
43681;BME280;29281;50.356;30.894;2022-08-19T01:31:45;99734.14;;;21.17;84.99
43681;BME280;29281;50.356;30.894;2022-08-19T01:32:50;99731.62;;;21.16;85.06
43681;BME280;29281;50.356;30.894;2022-08-19T01:33:55;99738.88;;;21.15;85.02
43681;BME280;29281;50.356;30.894;2022-08-19T01:35:00;99742.75;;;21.21;84.63
43681;BME280;29281;50.356;30.894;2022-08-19T01:36:41;99736.84;;;21.17;85.40
43681;BME280;29281;50.356;30.894;2022-08-19T01:37:50;99748.63;;;21.01;85.63
43681;BME280;29281;50.356;30.894;2022-08-19T01:38:54;99741.10;;;21.12;85.17
43681;BME280;29281;50.356;30.894;2022-08-19T01:39:58;99744.82;;;21.11;85.10
43681;BME280;29281;50.356;30.894;2022-08-19T01:41:03;99738.38;;;21.20;84.82
43681;BME280;29281;50.356;30.894;2022-08-19T01:42:10;99743.20;;;21.24;84.45
43681;BME280;29281;50.356;30.894;2022-08-19T01:43:14;99740.23;;;21.19;84.67
43681;BME280;29281;50.356;30.894;2022-08-19T01:44:18;99736.18;;;21.15;84.74
43681;BME280;29281;50.356;30.894;2022-08-19T01:45:30;99734.98;;;21.18;84.66
43681;BME280;29281;50.356;30.894;2022-08-19T01:46:34;99739.06;;;21.14;84.83
43681;BME280;29281;50.356;30.894;2022-08-19T01:47:39;99738.04;;;21.15;84.80
43681;BME280;29281;50.356;30.894;2022-08-19T01:48:44;99732.97;;;21.20;84.58
43681;BME280;29281;50.356;30.894;2022-08-19T01:49:54;99736.52;;;21.20;84.50
43681;BME280;29281;50.356;30.894;2022-08-19T01:50:55;99735.79;;;21.03;85.24
43681;BME280;29281;50.356;30.894;2022-08-19T01:52:00;99734.29;;;21.01;85.48
43681;BME280;29281;50.356;30.894;2022-08-19T01:53:06;99739.20;;;20.97;85.84
43681;BME280;29281;50.356;30.894;2022-08-19T01:54:12;99741.67;;;21.07;85.45
43681;BME280;29281;50.356;30.894;2022-08-19T01:55:20;99739.99;;;21.06;85.35
43681;BME280;29281;50.356;30.894;2022-08-19T01:56:26;99738.19;;;20.98;85.65
43681;BME280;29281;50.356;30.894;2022-08-19T01:57:33;99742.34;;;20.86;86.35
43681;BME280;29281;50.356;30.894;2022-08-19T01:58:41;99743.05;;;20.80;86.78
43681;BME280;29281;50.356;30.894;2022-08-19T01:59:50;99742.60;;;20.77;87.07
43681;BME280;29281;50.356;30.894;2022-08-19T02:00:53;99739.06;;;20.76;87.12
43681;BME280;29281;50.356;30.894;2022-08-19T02:01:58;99738.75;;;20.71;87.36
43681;BME280;29281;50.356;30.894;2022-08-19T02:03:03;99740.26;;;20.74;87.20
43681;BME280;29281;50.356;30.894;2022-08-19T02:04:06;99740.26;;;20.74;87.27
43681;BME280;29281;50.356;30.894;2022-08-19T02:05:12;99738.93;;;20.69;87.51
43681;BME280;29281;50.356;30.894;2022-08-19T02:06:16;99739.64;;;20.63;87.78
43681;BME280;29281;50.356;30.894;2022-08-19T02:07:20;99735.86;;;20.50;88.76
43681;BME280;29281;50.356;30.894;2022-08-19T02:08:29;99737.19;;;20.54;88.61
43681;BME280;29281;50.356;30.894;2022-08-19T02:09:34;99741.22;;;20.58;88.52
43681;BME280;29281;50.356;30.894;2022-08-19T02:10:42;99727.91;;;20.56;88.42
43681;BME280;29281;50.356;30.894;2022-08-19T02:11:46;99731.12;;;20.52;88.63
43681;BME280;29281;50.356;30.894;2022-08-19T02:12:51;99731.31;;;20.50;88.88
43681;BME280;29281;50.356;30.894;2022-08-19T02:13:57;99741.98;;;20.44;89.32
43681;BME280;29281;50.356;30.894;2022-08-19T02:15:02;99742.34;;;20.41;89.58
43681;BME280;29281;50.356;30.894;2022-08-19T02:16:05;99742.09;;;20.50;89.06
43681;BME280;29281;50.356;30.894;2022-08-19T02:17:09;99739.30;;;20.44;89.32
43681;BME280;29281;50.356;30.894;2022-08-19T02:18:14;99739.64;;;20.41;89.41
43681;BME280;29281;50.356;30.894;2022-08-19T02:19:18;99742.69;;;20.38;89.75
43681;BME280;29281;50.356;30.894;2022-08-19T02:20:25;99738.45;;;20.43;89.49
43681;BME280;29281;50.356;30.894;2022-08-19T02:21:29;99736.59;;;20.44;89.37
43681;BME280;29281;50.356;30.894;2022-08-19T02:22:33;99734.91;;;20.43;89.51
43681;BME280;29281;50.356;30.894;2022-08-19T02:23:37;99735.93;;;20.42;89.52
43681;BME280;29281;50.356;30.894;2022-08-19T02:24:40;99725.81;;;20.44;89.37
43681;BME280;29281;50.356;30.894;2022-08-19T02:25:46;99731.91;;;20.38;89.78
43681;BME280;29281;50.356;30.894;2022-08-19T02:26:51;99734.59;;;20.38;89.77
43681;BME280;29281;50.356;30.894;2022-08-19T02:27:55;99739.99;;;20.38;89.79
43681;BME280;29281;50.356;30.894;2022-08-19T02:28:59;99736.77;;;20.42;89.39
43681;BME280;29281;50.356;30.894;2022-08-19T02:30:04;99737.13;;;20.39;89.64
43681;BME280;29281;50.356;30.894;2022-08-19T02:31:16;99725.73;;;20.52;89.01
43681;BME280;29281;50.356;30.894;2022-08-19T02:32:21;99724.79;;;20.45;89.20
43681;BME280;29281;50.356;30.894;2022-08-19T02:33:23;99723.95;;;20.44;89.18
43681;BME280;29281;50.356;30.894;2022-08-19T02:34:26;99727.00;;;20.41;89.35
43681;BME280;29281;50.356;30.894;2022-08-19T02:35:30;99727.38;;;20.30;89.99
43681;BME280;29281;50.356;30.894;2022-08-19T02:36:34;99727.00;;;20.33;89.86
43681;BME280;29281;50.356;30.894;2022-08-19T02:37:36;99727.67;;;20.35;89.81
43681;BME280;29281;50.356;30.894;2022-08-19T02:39:02;99721.15;;;20.29;89.96
43681;BME280;29281;50.356;30.894;2022-08-19T02:40:04;99728.75;;;20.26;90.27
43681;BME280;29281;50.356;30.894;2022-08-19T02:41:13;99725.88;;;20.27;90.23
43681;BME280;29281;50.356;30.894;2022-08-19T02:42:19;99729.91;;;20.31;89.97
43681;BME280;29281;50.356;30.894;2022-08-19T02:43:26;99725.98;;;20.34;89.79
43681;BME280;29281;50.356;30.894;2022-08-19T02:44:32;99732.08;;;20.36;89.48
43681;BME280;29281;50.356;30.894;2022-08-19T02:45:38;99729.41;;;20.28;89.98
43681;BME280;29281;50.356;30.894;2022-08-19T02:46:47;99730.53;;;20.42;89.30
43681;BME280;29281;50.356;30.894;2022-08-19T02:47:56;99727.20;;;20.31;89.80
43681;BME280;29281;50.356;30.894;2022-08-19T02:49:04;99725.98;;;20.34;89.70
43681;BME280;29281;50.356;30.894;2022-08-19T02:50:10;99729.70;;;20.33;89.70
43681;BME280;29281;50.356;30.894;2022-08-19T02:51:17;99732.95;;;20.28;89.83
43681;BME280;29281;50.356;30.894;2022-08-19T02:52:23;99724.83;;;20.36;89.58
43681;BME280;29281;50.356;30.894;2022-08-19T02:53:29;99732.88;;;20.45;89.03
43681;BME280;29281;50.356;30.894;2022-08-19T02:54:33;99732.08;;;20.36;89.35
43681;BME280;29281;50.356;30.894;2022-08-19T02:55:44;99733.41;;;20.40;89.18
43681;BME280;29281;50.356;30.894;2022-08-19T02:56:49;99727.52;;;20.36;89.52
43681;BME280;29281;50.356;30.894;2022-08-19T02:57:54;99731.55;;;20.32;89.57
43681;BME280;29281;50.356;30.894;2022-08-19T02:58:57;99732.74;;;20.38;89.37
43681;BME280;29281;50.356;30.894;2022-08-19T03:00:04;99725.31;;;20.40;89.21
43681;BME280;29281;50.356;30.894;2022-08-19T03:01:07;99736.59;;;20.44;88.92
43681;BME280;29281;50.356;30.894;2022-08-19T03:02:12;99728.78;;;20.49;88.61
43681;BME280;29281;50.356;30.894;2022-08-19T03:03:18;99729.45;;;20.51;88.40
43681;BME280;29281;50.356;30.894;2022-08-19T03:04:22;99724.97;;;20.43;88.67
43681;BME280;29281;50.356;30.894;2022-08-19T03:05:27;99739.96;;;20.46;88.61
43681;BME280;29281;50.356;30.894;2022-08-19T03:06:36;99738.31;;;20.36;89.05
43681;BME280;29281;50.356;30.894;2022-08-19T03:07:39;99735.44;;;20.38;88.96
43681;BME280;29281;50.356;30.894;2022-08-19T03:08:46;99735.61;;;20.36;89.00
43681;BME280;29281;50.356;30.894;2022-08-19T03:09:49;99732.22;;;20.43;88.75
43681;BME280;29281;50.356;30.894;2022-08-19T03:10:55;99736.77;;;20.42;88.61
43681;BME280;29281;50.356;30.894;2022-08-19T03:11:59;99739.12;;;20.45;88.50
43681;BME280;29281;50.356;30.894;2022-08-19T03:13:05;99734.18;;;20.49;88.27
43681;BME280;29281;50.356;30.894;2022-08-19T03:14:10;99737.68;;;20.57;87.77
43681;BME280;29281;50.356;30.894;2022-08-19T03:15:17;99739.84;;;20.62;87.47
43681;BME280;29281;50.356;30.894;2022-08-19T03:16:24;99736.59;;;20.66;87.15
43681;BME280;29281;50.356;30.894;2022-08-19T03:17:34;99743.91;;;20.58;87.51
43681;BME280;29281;50.356;30.894;2022-08-19T03:18:37;99735.64;;;20.59;87.31
43681;BME280;29281;50.356;30.894;2022-08-19T03:19:39;99738.52;;;20.58;87.42
43681;BME280;29281;50.356;30.894;2022-08-19T03:20:48;99736.17;;;20.55;87.68
43681;BME280;29281;50.356;30.894;2022-08-19T03:21:52;99737.43;;;20.67;86.94
43681;BME280;29281;50.356;30.894;2022-08-19T03:23:04;99738.27;;;20.67;87.24
43681;BME280;29281;50.356;30.894;2022-08-19T03:24:10;99737.19;;;20.54;87.65
43681;BME280;29281;50.356;30.894;2022-08-19T03:25:15;99743.67;;;20.45;87.98
43681;BME280;29281;50.356;30.894;2022-08-19T03:26:19;99740.31;;;20.43;88.25
43681;BME280;29281;50.356;30.894;2022-08-19T03:27:22;99738.45;;;20.66;87.10
43681;BME280;29281;50.356;30.894;2022-08-19T03:28:28;99746.02;;;20.70;86.74
43681;BME280;29281;50.356;30.894;2022-08-19T03:29:31;99751.09;;;20.65;86.82
43681;BME280;29281;50.356;30.894;2022-08-19T03:30:40;99751.87;;;20.51;87.49
43681;BME280;29281;50.356;30.894;2022-08-19T03:31:50;99754.70;;;20.58;87.37
43681;BME280;29281;50.356;30.894;2022-08-19T03:32:55;99742.41;;;20.55;87.47
43681;BME280;29281;50.356;30.894;2022-08-19T03:33:59;99748.33;;;20.51;87.67
43681;BME280;29281;50.356;30.894;2022-08-19T03:35:02;99749.34;;;20.50;87.77
43681;BME280;29281;50.356;30.894;2022-08-19T03:37:16;99755.41;;;20.52;87.62
43681;BME280;29281;50.356;30.894;2022-08-19T03:38:21;99750.64;;;20.62;87.09
43681;BME280;29281;50.356;30.894;2022-08-19T03:39:25;99749.80;;;20.61;87.24
43681;BME280;29281;50.356;30.894;2022-08-19T03:40:29;99758.91;;;20.60;86.83
43681;BME280;29281;50.356;30.894;2022-08-19T03:41:38;99761.30;;;20.55;87.18
43681;BME280;29281;50.356;30.894;2022-08-19T03:42:46;99766.52;;;20.57;87.15
43681;BME280;29281;50.356;30.894;2022-08-19T03:43:55;99764.23;;;20.68;86.67
43681;BME280;29281;50.356;30.894;2022-08-19T03:44:57;99762.73;;;20.66;86.54
43681;BME280;29281;50.356;30.894;2022-08-19T03:46:14;99765.36;;;20.97;85.54
43681;BME280;29281;50.356;30.894;2022-08-19T03:47:18;99771.02;;;20.87;85.49
43681;BME280;29281;50.356;30.894;2022-08-19T03:48:21;99770.35;;;20.85;85.25
43681;BME280;29281;50.356;30.894;2022-08-19T03:49:28;99771.33;;;20.92;85.02
43681;BME280;29281;50.356;30.894;2022-08-19T03:50:39;99771.02;;;20.87;85.02
43681;BME280;29281;50.356;30.894;2022-08-19T03:51:46;99766.89;;;20.77;85.31
43681;BME280;29281;50.356;30.894;2022-08-19T03:52:51;99762.20;;;20.70;85.76
43681;BME280;29281;50.356;30.894;2022-08-19T03:53:56;99772.34;;;20.91;85.01
43681;BME280;29281;50.356;30.894;2022-08-19T03:55:02;99778.38;;;20.93;84.62
43681;BME280;29281;50.356;30.894;2022-08-19T03:56:08;99770.66;;;20.90;84.81
43681;BME280;29281;50.356;30.894;2022-08-19T03:57:11;99771.42;;;20.99;84.16
43681;BME280;29281;50.356;30.894;2022-08-19T03:58:15;99775.36;;;21.11;83.75
43681;BME280;29281;50.356;30.894;2022-08-19T03:59:33;99784.66;;;21.08;83.78
43681;BME280;29281;50.356;30.894;2022-08-19T04:00:42;99782.44;;;21.12;83.41
43681;BME280;29281;50.356;30.894;2022-08-19T04:01:44;99785.23;;;21.04;83.70
43681;BME280;29281;50.356;30.894;2022-08-19T04:02:48;99795.05;;;20.97;83.76
43681;BME280;29281;50.356;30.894;2022-08-19T04:03:58;99791.87;;;20.93;84.23
43681;BME280;29281;50.356;30.894;2022-08-19T04:05:12;99792.78;;;20.86;84.47
43681;BME280;29281;50.356;30.894;2022-08-19T04:06:24;99790.98;;;21.01;84.07
43681;BME280;29281;50.356;30.894;2022-08-19T04:07:28;99793.76;;;20.93;84.13
43681;BME280;29281;50.356;30.894;2022-08-19T04:08:35;99796.38;;;21.01;84.07
43681;BME280;29281;50.356;30.894;2022-08-19T04:09:40;99794.92;;;21.13;83.27
43681;BME280;29281;50.356;30.894;2022-08-19T04:10:44;99802.61;;;21.24;82.59
43681;BME280;29281;50.356;30.894;2022-08-19T04:11:50;99796.19;;;21.25;82.44
43681;BME280;29281;50.356;30.894;2022-08-19T04:12:55;99803.58;;;21.31;82.19
43681;BME280;29281;50.356;30.894;2022-08-19T04:14:00;99811.32;;;21.34;82.09
43681;BME280;29281;50.356;30.894;2022-08-19T04:15:16;99807.51;;;21.44;81.67
43681;BME280;29281;50.356;30.894;2022-08-19T04:16:25;99813.23;;;21.26;82.32
43681;BME280;29281;50.356;30.894;2022-08-19T04:17:32;99807.23;;;21.16;82.52
43681;BME280;29281;50.356;30.894;2022-08-19T04:18:40;99810.27;;;21.21;82.82
43681;BME280;29281;50.356;30.894;2022-08-19T04:19:45;99800.30;;;21.21;82.35
43681;BME280;29281;50.356;30.894;2022-08-19T04:20:49;99806.16;;;21.25;82.10
43681;BME280;29281;50.356;30.894;2022-08-19T04:21:54;99807.30;;;21.30;81.84
43681;BME280;29281;50.356;30.894;2022-08-19T04:22:58;99813.45;;;21.39;81.47
43681;BME280;29281;50.356;30.894;2022-08-19T04:24:03;99815.80;;;21.42;81.06
43681;BME280;29281;50.356;30.894;2022-08-19T04:25:08;99813.95;;;21.57;80.67
43681;BME280;29281;50.356;30.894;2022-08-19T04:26:16;99810.98;;;21.52;80.49
43681;BME280;29281;50.356;30.894;2022-08-19T04:27:24;99812.39;;;21.25;81.41
43681;BME280;29281;50.356;30.894;2022-08-19T04:28:29;99802.37;;;21.34;81.61
43681;BME280;29281;50.356;30.894;2022-08-19T04:29:35;99813.09;;;21.42;81.36
43681;BME280;29281;50.356;30.894;2022-08-19T04:30:47;99808.27;;;21.37;81.03
43681;BME280;29281;50.356;30.894;2022-08-19T04:31:53;99808.65;;;21.49;80.59
43681;BME280;29281;50.356;30.894;2022-08-19T04:32:55;99801.11;;;21.59;80.17
43681;BME280;29281;50.356;30.894;2022-08-19T04:34:10;99806.45;;;21.67;80.05
43681;BME280;29281;50.356;30.894;2022-08-19T04:35:17;99807.83;;;21.63;79.61
43681;BME280;29281;50.356;30.894;2022-08-19T04:36:30;99804.66;;;21.74;79.46
43681;BME280;29281;50.356;30.894;2022-08-19T04:37:32;99800.48;;;22.01;78.30
43681;BME280;29281;50.356;30.894;2022-08-19T04:38:38;99811.20;;;21.95;78.23
43681;BME280;29281;50.356;30.894;2022-08-19T04:39:41;99811.78;;;22.05;77.82
43681;BME280;29281;50.356;30.894;2022-08-19T04:41:05;99811.52;;;22.15;77.36
43681;BME280;29281;50.356;30.894;2022-08-19T04:42:26;99807.11;;;22.28;76.53
43681;BME280;29281;50.356;30.894;2022-08-19T04:43:44;99815.14;;;22.07;77.00
43681;BME280;29281;50.356;30.894;2022-08-19T04:44:50;99807.12;;;22.14;77.07
43681;BME280;29281;50.356;30.894;2022-08-19T04:45:56;99808.70;;;22.08;77.34
43681;BME280;29281;50.356;30.894;2022-08-19T04:47:02;99810.45;;;22.16;77.05
43681;BME280;29281;50.356;30.894;2022-08-19T04:48:12;99808.50;;;22.24;77.15
43681;BME280;29281;50.356;30.894;2022-08-19T04:49:19;99810.55;;;22.22;76.53
43681;BME280;29281;50.356;30.894;2022-08-19T04:50:26;99799.16;;;22.41;76.04
43681;BME280;29281;50.356;30.894;2022-08-19T04:51:31;99797.19;;;22.35;76.30
43681;BME280;29281;50.356;30.894;2022-08-19T04:52:35;99796.69;;;22.46;75.45
43681;BME280;29281;50.356;30.894;2022-08-19T04:53:41;99802.72;;;22.63;74.68
43681;BME280;29281;50.356;30.894;2022-08-19T04:54:46;99804.48;;;22.71;74.08
43681;BME280;29281;50.356;30.894;2022-08-19T04:55:49;99803.17;;;22.67;74.13
43681;BME280;29281;50.356;30.894;2022-08-19T04:56:56;99802.26;;;23.17;72.16
43681;BME280;29281;50.356;30.894;2022-08-19T04:58:00;99807.86;;;23.37;71.21
43681;BME280;29281;50.356;30.894;2022-08-19T04:59:08;99803.95;;;23.46;70.58
43681;BME280;29281;50.356;30.894;2022-08-19T05:00:12;99802.63;;;23.91;69.05
43681;BME280;29281;50.356;30.894;2022-08-19T05:02:38;99816.19;;;24.93;64.38
43681;BME280;29281;50.356;30.894;2022-08-19T05:03:45;99812.17;;;24.76;64.59
43681;BME280;29281;50.356;30.894;2022-08-19T05:04:48;99807.35;;;24.58;65.19
43681;BME280;29281;50.356;30.894;2022-08-19T05:05:52;99811.08;;;25.64;62.25
43681;BME280;29281;50.356;30.894;2022-08-19T05:06:59;99821.76;;;27.19;56.95
43681;BME280;29281;50.356;30.894;2022-08-19T05:08:07;99835.50;;;28.60;52.36
43681;BME280;29281;50.356;30.894;2022-08-19T05:09:14;99839.83;;;28.86;50.88
43681;BME280;29281;50.356;30.894;2022-08-19T05:10:25;99848.92;;;29.52;49.09
43681;BME280;29281;50.356;30.894;2022-08-19T05:11:33;99852.23;;;30.47;47.44
43681;BME280;29281;50.356;30.894;2022-08-19T05:12:37;99865.56;;;30.67;46.54
43681;BME280;29281;50.356;30.894;2022-08-19T05:13:40;99865.92;;;30.70;46.03
43681;BME280;29281;50.356;30.894;2022-08-19T05:14:47;99862.00;;;31.23;44.63
43681;BME280;29281;50.356;30.894;2022-08-19T05:15:57;99869.38;;;30.66;45.51
43681;BME280;29281;50.356;30.894;2022-08-19T05:17:01;99856.90;;;29.53;47.58
43681;BME280;29281;50.356;30.894;2022-08-19T05:18:11;99841.47;;;29.17;49.06
43681;BME280;29281;50.356;30.894;2022-08-19T05:19:33;99852.20;;;29.30;48.44
43681;BME280;29281;50.356;30.894;2022-08-19T05:20:59;99862.95;;;30.49;46.03
43681;BME280;29281;50.356;30.894;2022-08-19T05:22:21;99876.00;;;30.82;44.93
43681;BME280;29281;50.356;30.894;2022-08-19T05:23:41;99860.98;;;29.62;47.30
43681;BME280;29281;50.356;30.894;2022-08-19T05:24:49;99851.31;;;28.22;50.73
43681;BME280;29281;50.356;30.894;2022-08-19T05:25:54;99844.53;;;27.63;52.31
43681;BME280;29281;50.356;30.894;2022-08-19T05:27:02;99833.73;;;26.80;55.01
43681;BME280;29281;50.356;30.894;2022-08-19T05:28:08;99833.73;;;26.80;55.01
43681;BME280;29281;50.356;30.894;2022-08-19T05:29:15;99831.89;;;27.12;54.31
43681;BME280;29281;50.356;30.894;2022-08-19T05:30:21;99658.37;;;27.97;52.35
43681;BME280;29281;50.356;30.894;2022-08-19T05:31:27;99844.30;;;29.11;49.63
43681;BME280;29281;50.356;30.894;2022-08-19T05:32:34;99857.16;;;29.87;47.70
43681;BME280;29281;50.356;30.894;2022-08-19T05:33:40;99851.56;;;29.70;47.40
43681;BME280;29281;50.356;30.894;2022-08-19T05:34:43;99854.63;;;29.50;48.17
43681;BME280;29281;50.356;30.894;2022-08-19T05:35:48;99848.68;;;29.42;48.55
43681;BME280;29281;50.356;30.894;2022-08-19T05:36:56;99853.14;;;29.36;48.55
43681;BME280;29281;50.356;30.894;2022-08-19T05:38:01;99857.22;;;29.03;49.26
43681;BME280;29281;50.356;30.894;2022-08-19T05:39:06;99855.89;;;28.76;49.71
43681;BME280;29281;50.356;30.894;2022-08-19T05:40:13;99861.80;;;28.73;50.04
43681;BME280;29281;50.356;30.894;2022-08-19T05:41:22;99863.36;;;28.69;49.91
43681;BME280;29281;50.356;30.894;2022-08-19T05:42:38;99860.06;;;28.06;51.58
43681;BME280;29281;50.356;30.894;2022-08-19T05:43:42;99853.66;;;27.19;53.58
43681;BME280;29281;50.356;30.894;2022-08-19T05:44:47;99844.27;;;26.70;55.38
43681;BME280;29281;50.356;30.894;2022-08-19T05:45:52;99842.97;;;26.15;57.12
43681;BME280;29281;50.356;30.894;2022-08-19T05:47:00;99846.73;;;26.14;57.55
43681;BME280;29281;50.356;30.894;2022-08-19T05:48:10;99845.55;;;25.97;58.21
43681;BME280;29281;50.356;30.894;2022-08-19T05:49:15;99836.36;;;25.71;59.21
43681;BME280;29281;50.356;30.894;2022-08-19T05:50:21;99834.66;;;25.83;59.12
43681;BME280;29281;50.356;30.894;2022-08-19T05:51:26;99835.09;;;25.87;59.06
43681;BME280;29281;50.356;30.894;2022-08-19T05:52:31;99826.11;;;25.73;59.26
43681;BME280;29281;50.356;30.894;2022-08-19T05:53:36;99829.85;;;25.52;59.64
43681;BME280;29281;50.356;30.894;2022-08-19T05:54:41;99830.70;;;25.20;60.35